sensor_id;sensor_type;location;lat;lon;timestamp;P1;durP1;ratioP1;P2;durP2;ratioP2
49722;SDS011;43484;43.608;1.458;2023-07-29T00:00:43;5.20;;;3.17;;
49722;SDS011;43484;43.608;1.458;2023-07-29T00:03:10;6.78;;;3.85;;
49722;SDS011;43484;43.608;1.458;2023-07-29T00:05:37;4.97;;;3.30;;
49722;SDS011;43484;43.608;1.458;2023-07-29T00:08:04;5.03;;;2.97;;
49722;SDS011;43484;43.608;1.458;2023-07-29T00:10:31;5.68;;;3.53;;
49722;SDS011;43484;43.608;1.458;2023-07-29T00:12:59;7.43;;;3.60;;
49722;SDS011;43484;43.608;1.458;2023-07-29T00:15:25;6.85;;;3.47;;
49722;SDS011;43484;43.608;1.458;2023-07-29T00:17:52;4.80;;;3.47;;
49722;SDS011;43484;43.608;1.458;2023-07-29T00:20:18;3.50;;;3.10;;
49722;SDS011;43484;43.608;1.458;2023-07-29T00:22:45;6.55;;;3.70;;
49722;SDS011;43484;43.608;1.458;2023-07-29T00:25:12;4.03;;;3.65;;
49722;SDS011;43484;43.608;1.458;2023-07-29T00:27:38;7.70;;;3.63;;
49722;SDS011;43484;43.608;1.458;2023-07-29T00:30:05;7.75;;;3.72;;
49722;SDS011;43484;43.608;1.458;2023-07-29T00:32:32;5.50;;;3.58;;
49722;SDS011;43484;43.608;1.458;2023-07-29T00:34:59;4.78;;;3.55;;
49722;SDS011;43484;43.608;1.458;2023-07-29T00:37:27;4.93;;;3.53;;
49722;SDS011;43484;43.608;1.458;2023-07-29T00:39:54;3.88;;;3.38;;
49722;SDS011;43484;43.608;1.458;2023-07-29T00:42:21;3.97;;;3.38;;
49722;SDS011;43484;43.608;1.458;2023-07-29T00:44:47;4.97;;;3.42;;
49722;SDS011;43484;43.608;1.458;2023-07-29T00:47:15;8.20;;;4.43;;
49722;SDS011;43484;43.608;1.458;2023-07-29T00:49:44;5.00;;;4.50;;
49722;SDS011;43484;43.608;1.458;2023-07-29T00:52:11;4.75;;;3.47;;
49722;SDS011;43484;43.608;1.458;2023-07-29T00:54:39;7.95;;;3.63;;
49722;SDS011;43484;43.608;1.458;2023-07-29T00:57:06;4.65;;;3.33;;
49722;SDS011;43484;43.608;1.458;2023-07-29T00:59:35;8.00;;;3.47;;
49722;SDS011;43484;43.608;1.458;2023-07-29T01:02:02;8.98;;;4.13;;
49722;SDS011;43484;43.608;1.458;2023-07-29T01:04:29;7.15;;;3.95;;
49722;SDS011;43484;43.608;1.458;2023-07-29T01:09:43;7.50;;;3.88;;
49722;SDS011;43484;43.608;1.458;2023-07-29T01:14:57;7.10;;;4.53;;
49722;SDS011;43484;43.608;1.458;2023-07-29T01:20:37;8.05;;;4.07;;
49722;SDS011;43484;43.608;1.458;2023-07-29T01:23:07;5.10;;;3.97;;
49722;SDS011;43484;43.608;1.458;2023-07-29T01:25:34;6.45;;;3.75;;
49722;SDS011;43484;43.608;1.458;2023-07-29T01:28:00;4.05;;;3.58;;
49722;SDS011;43484;43.608;1.458;2023-07-29T01:30:29;5.00;;;3.95;;
49722;SDS011;43484;43.608;1.458;2023-07-29T01:33:02;4.97;;;4.07;;
49722;SDS011;43484;43.608;1.458;2023-07-29T01:35:40;5.55;;;4.28;;
49722;SDS011;43484;43.608;1.458;2023-07-29T01:38:29;5.13;;;3.42;;
49722;SDS011;43484;43.608;1.458;2023-07-29T01:41:01;4.93;;;3.92;;
49722;SDS011;43484;43.608;1.458;2023-07-29T01:43:29;6.88;;;3.67;;
49722;SDS011;43484;43.608;1.458;2023-07-29T01:45:56;7.75;;;4.50;;
49722;SDS011;43484;43.608;1.458;2023-07-29T01:48:23;4.18;;;3.65;;
49722;SDS011;43484;43.608;1.458;2023-07-29T01:50:50;5.90;;;3.65;;
49722;SDS011;43484;43.608;1.458;2023-07-29T01:53:17;5.60;;;3.95;;
49722;SDS011;43484;43.608;1.458;2023-07-29T01:55:44;5.28;;;3.95;;
49722;SDS011;43484;43.608;1.458;2023-07-29T01:58:11;4.72;;;3.95;;
49722;SDS011;43484;43.608;1.458;2023-07-29T02:00:38;5.43;;;4.00;;
49722;SDS011;43484;43.608;1.458;2023-07-29T02:03:04;5.10;;;4.60;;
49722;SDS011;43484;43.608;1.458;2023-07-29T02:05:31;8.93;;;3.58;;
49722;SDS011;43484;43.608;1.458;2023-07-29T02:07:58;4.15;;;3.75;;
49722;SDS011;43484;43.608;1.458;2023-07-29T02:10:24;5.93;;;4.18;;
49722;SDS011;43484;43.608;1.458;2023-07-29T02:12:51;8.85;;;4.13;;
49722;SDS011;43484;43.608;1.458;2023-07-29T02:15:17;9.15;;;3.53;;
49722;SDS011;43484;43.608;1.458;2023-07-29T02:17:44;4.45;;;3.75;;
49722;SDS011;43484;43.608;1.458;2023-07-29T02:20:11;4.80;;;3.83;;
49722;SDS011;43484;43.608;1.458;2023-07-29T02:22:38;4.07;;;3.70;;
49722;SDS011;43484;43.608;1.458;2023-07-29T02:25:04;4.85;;;3.85;;
49722;SDS011;43484;43.608;1.458;2023-07-29T02:27:31;4.82;;;3.78;;
49722;SDS011;43484;43.608;1.458;2023-07-29T02:29:58;8.75;;;3.95;;
49722;SDS011;43484;43.608;1.458;2023-07-29T02:32:25;4.43;;;4.03;;
49722;SDS011;43484;43.608;1.458;2023-07-29T02:34:52;5.32;;;3.97;;
49722;SDS011;43484;43.608;1.458;2023-07-29T02:37:18;4.50;;;4.10;;
49722;SDS011;43484;43.608;1.458;2023-07-29T02:39:45;5.60;;;4.07;;
49722;SDS011;43484;43.608;1.458;2023-07-29T02:42:12;5.82;;;4.13;;
49722;SDS011;43484;43.608;1.458;2023-07-29T02:44:39;5.13;;;4.35;;
49722;SDS011;43484;43.608;1.458;2023-07-29T02:47:06;7.25;;;4.15;;
49722;SDS011;43484;43.608;1.458;2023-07-29T02:49:33;7.57;;;4.15;;
49722;SDS011;43484;43.608;1.458;2023-07-29T02:51:59;6.18;;;4.13;;
49722;SDS011;43484;43.608;1.458;2023-07-29T02:54:26;6.07;;;4.32;;
49722;SDS011;43484;43.608;1.458;2023-07-29T02:56:53;6.70;;;4.75;;
49722;SDS011;43484;43.608;1.458;2023-07-29T02:59:19;4.30;;;3.55;;
49722;SDS011;43484;43.608;1.458;2023-07-29T03:01:46;6.95;;;4.40;;
49722;SDS011;43484;43.608;1.458;2023-07-29T03:04:13;5.20;;;4.38;;
49722;SDS011;43484;43.608;1.458;2023-07-29T03:06:39;5.10;;;3.85;;
49722;SDS011;43484;43.608;1.458;2023-07-29T03:09:06;4.97;;;4.15;;
49722;SDS011;43484;43.608;1.458;2023-07-29T03:11:32;11.07;;;4.93;;
49722;SDS011;43484;43.608;1.458;2023-07-29T03:13:59;5.45;;;4.15;;
49722;SDS011;43484;43.608;1.458;2023-07-29T03:16:27;8.20;;;4.60;;
49722;SDS011;43484;43.608;1.458;2023-07-29T03:18:54;5.38;;;3.95;;
49722;SDS011;43484;43.608;1.458;2023-07-29T03:21:21;6.63;;;4.43;;
49722;SDS011;43484;43.608;1.458;2023-07-29T03:23:47;7.68;;;5.43;;
49722;SDS011;43484;43.608;1.458;2023-07-29T03:26:14;6.05;;;4.75;;
49722;SDS011;43484;43.608;1.458;2023-07-29T03:28:41;11.85;;;5.28;;
49722;SDS011;43484;43.608;1.458;2023-07-29T03:31:08;5.63;;;4.90;;
49722;SDS011;43484;43.608;1.458;2023-07-29T03:33:36;6.35;;;4.82;;
49722;SDS011;43484;43.608;1.458;2023-07-29T03:36:02;14.30;;;4.88;;
49722;SDS011;43484;43.608;1.458;2023-07-29T03:38:29;7.03;;;4.85;;
49722;SDS011;43484;43.608;1.458;2023-07-29T03:40:56;6.95;;;4.95;;
49722;SDS011;43484;43.608;1.458;2023-07-29T03:43:24;6.57;;;4.10;;
49722;SDS011;43484;43.608;1.458;2023-07-29T03:45:50;5.00;;;4.50;;
49722;SDS011;43484;43.608;1.458;2023-07-29T03:48:17;7.07;;;4.30;;
49722;SDS011;43484;43.608;1.458;2023-07-29T03:50:43;5.57;;;4.75;;
49722;SDS011;43484;43.608;1.458;2023-07-29T03:53:10;7.82;;;5.20;;
49722;SDS011;43484;43.608;1.458;2023-07-29T03:55:37;5.28;;;4.72;;
49722;SDS011;43484;43.608;1.458;2023-07-29T03:58:03;6.80;;;4.90;;
49722;SDS011;43484;43.608;1.458;2023-07-29T04:00:30;4.68;;;4.10;;
49722;SDS011;43484;43.608;1.458;2023-07-29T04:02:57;9.63;;;4.00;;
49722;SDS011;43484;43.608;1.458;2023-07-29T04:05:23;11.80;;;4.60;;
49722;SDS011;43484;43.608;1.458;2023-07-29T04:07:50;6.72;;;4.60;;
49722;SDS011;43484;43.608;1.458;2023-07-29T04:10:17;4.47;;;4.15;;
49722;SDS011;43484;43.608;1.458;2023-07-29T04:12:43;4.78;;;4.18;;
49722;SDS011;43484;43.608;1.458;2023-07-29T04:15:10;7.18;;;4.10;;
49722;SDS011;43484;43.608;1.458;2023-07-29T04:17:37;6.47;;;4.45;;
49722;SDS011;43484;43.608;1.458;2023-07-29T04:20:03;5.30;;;4.82;;
49722;SDS011;43484;43.608;1.458;2023-07-29T04:22:30;10.20;;;4.47;;
49722;SDS011;43484;43.608;1.458;2023-07-29T04:24:58;5.57;;;3.88;;
49722;SDS011;43484;43.608;1.458;2023-07-29T04:27:24;7.05;;;4.35;;
49722;SDS011;43484;43.608;1.458;2023-07-29T04:29:51;10.00;;;4.70;;
49722;SDS011;43484;43.608;1.458;2023-07-29T04:32:17;6.07;;;3.95;;
49722;SDS011;43484;43.608;1.458;2023-07-29T04:34:44;7.20;;;4.07;;
49722;SDS011;43484;43.608;1.458;2023-07-29T04:37:11;8.50;;;3.75;;
49722;SDS011;43484;43.608;1.458;2023-07-29T04:39:37;8.25;;;4.55;;
49722;SDS011;43484;43.608;1.458;2023-07-29T04:42:04;7.45;;;4.18;;
49722;SDS011;43484;43.608;1.458;2023-07-29T04:44:31;7.93;;;3.85;;
49722;SDS011;43484;43.608;1.458;2023-07-29T04:46:58;6.57;;;4.13;;
49722;SDS011;43484;43.608;1.458;2023-07-29T04:49:24;8.38;;;4.20;;
49722;SDS011;43484;43.608;1.458;2023-07-29T04:51:51;6.72;;;4.00;;
49722;SDS011;43484;43.608;1.458;2023-07-29T04:54:18;4.78;;;4.07;;
49722;SDS011;43484;43.608;1.458;2023-07-29T04:56:47;4.70;;;4.28;;
49722;SDS011;43484;43.608;1.458;2023-07-29T04:59:13;4.53;;;4.00;;
49722;SDS011;43484;43.608;1.458;2023-07-29T05:01:40;4.90;;;3.97;;
49722;SDS011;43484;43.608;1.458;2023-07-29T05:04:09;8.90;;;3.97;;
49722;SDS011;43484;43.608;1.458;2023-07-29T05:06:36;7.80;;;4.50;;
49722;SDS011;43484;43.608;1.458;2023-07-29T05:09:15;12.52;;;4.40;;
49722;SDS011;43484;43.608;1.458;2023-07-29T05:11:45;5.13;;;3.90;;
49722;SDS011;43484;43.608;1.458;2023-07-29T05:14:15;14.05;;;4.32;;
49722;SDS011;43484;43.608;1.458;2023-07-29T05:16:43;4.18;;;3.38;;
49722;SDS011;43484;43.608;1.458;2023-07-29T05:19:10;6.70;;;4.20;;
49722;SDS011;43484;43.608;1.458;2023-07-29T05:21:38;6.15;;;4.65;;
49722;SDS011;43484;43.608;1.458;2023-07-29T05:24:05;6.95;;;4.50;;
49722;SDS011;43484;43.608;1.458;2023-07-29T05:26:32;5.72;;;3.85;;
49722;SDS011;43484;43.608;1.458;2023-07-29T05:28:59;4.63;;;3.55;;
49722;SDS011;43484;43.608;1.458;2023-07-29T05:31:25;6.00;;;3.42;;
49722;SDS011;43484;43.608;1.458;2023-07-29T05:33:52;11.80;;;4.35;;
49722;SDS011;43484;43.608;1.458;2023-07-29T05:36:19;6.43;;;3.95;;
49722;SDS011;43484;43.608;1.458;2023-07-29T05:38:45;5.30;;;3.92;;
49722;SDS011;43484;43.608;1.458;2023-07-29T05:41:12;6.72;;;4.07;;
49722;SDS011;43484;43.608;1.458;2023-07-29T05:43:38;12.13;;;4.65;;
49722;SDS011;43484;43.608;1.458;2023-07-29T05:46:06;7.95;;;4.43;;
49722;SDS011;43484;43.608;1.458;2023-07-29T05:48:33;5.20;;;4.07;;
49722;SDS011;43484;43.608;1.458;2023-07-29T05:51:00;7.68;;;4.03;;
49722;SDS011;43484;43.608;1.458;2023-07-29T05:53:27;10.60;;;4.03;;
49722;SDS011;43484;43.608;1.458;2023-07-29T05:55:53;5.55;;;4.03;;
49722;SDS011;43484;43.608;1.458;2023-07-29T05:58:20;10.27;;;4.22;;
49722;SDS011;43484;43.608;1.458;2023-07-29T06:00:46;7.90;;;4.20;;
49722;SDS011;43484;43.608;1.458;2023-07-29T06:03:13;8.50;;;3.67;;
49722;SDS011;43484;43.608;1.458;2023-07-29T06:05:40;8.82;;;4.00;;
49722;SDS011;43484;43.608;1.458;2023-07-29T06:08:07;9.63;;;3.70;;
49722;SDS011;43484;43.608;1.458;2023-07-29T06:10:34;10.85;;;4.78;;
49722;SDS011;43484;43.608;1.458;2023-07-29T06:13:01;6.80;;;4.40;;
49722;SDS011;43484;43.608;1.458;2023-07-29T06:15:28;5.70;;;4.13;;
49722;SDS011;43484;43.608;1.458;2023-07-29T06:17:54;8.52;;;4.65;;
49722;SDS011;43484;43.608;1.458;2023-07-29T06:20:22;7.05;;;4.70;;
49722;SDS011;43484;43.608;1.458;2023-07-29T06:22:49;5.70;;;4.75;;
49722;SDS011;43484;43.608;1.458;2023-07-29T06:25:16;7.38;;;4.93;;
49722;SDS011;43484;43.608;1.458;2023-07-29T06:27:42;7.88;;;5.10;;
49722;SDS011;43484;43.608;1.458;2023-07-29T06:30:09;6.63;;;4.82;;
49722;SDS011;43484;43.608;1.458;2023-07-29T06:32:36;7.82;;;4.85;;
49722;SDS011;43484;43.608;1.458;2023-07-29T06:35:03;5.72;;;4.70;;
49722;SDS011;43484;43.608;1.458;2023-07-29T06:37:29;6.55;;;4.28;;
49722;SDS011;43484;43.608;1.458;2023-07-29T06:39:56;6.38;;;5.22;;
49722;SDS011;43484;43.608;1.458;2023-07-29T06:42:23;8.40;;;5.30;;
49722;SDS011;43484;43.608;1.458;2023-07-29T06:44:49;9.77;;;4.53;;
49722;SDS011;43484;43.608;1.458;2023-07-29T06:47:16;5.78;;;4.57;;
49722;SDS011;43484;43.608;1.458;2023-07-29T06:49:42;9.07;;;4.63;;
49722;SDS011;43484;43.608;1.458;2023-07-29T06:52:09;5.72;;;4.10;;
49722;SDS011;43484;43.608;1.458;2023-07-29T06:54:36;5.55;;;4.57;;
49722;SDS011;43484;43.608;1.458;2023-07-29T06:57:02;6.45;;;4.80;;
49722;SDS011;43484;43.608;1.458;2023-07-29T06:59:29;6.63;;;4.47;;
49722;SDS011;43484;43.608;1.458;2023-07-29T07:01:56;6.68;;;4.38;;
49722;SDS011;43484;43.608;1.458;2023-07-29T07:04:22;6.10;;;5.10;;
49722;SDS011;43484;43.608;1.458;2023-07-29T07:06:49;7.00;;;4.78;;
49722;SDS011;43484;43.608;1.458;2023-07-29T07:09:16;6.38;;;5.13;;
49722;SDS011;43484;43.608;1.458;2023-07-29T07:11:44;8.20;;;4.78;;
49722;SDS011;43484;43.608;1.458;2023-07-29T07:14:10;6.20;;;4.68;;
49722;SDS011;43484;43.608;1.458;2023-07-29T07:16:37;11.20;;;5.00;;
49722;SDS011;43484;43.608;1.458;2023-07-29T07:19:06;8.15;;;5.35;;
49722;SDS011;43484;43.608;1.458;2023-07-29T07:21:32;7.68;;;4.40;;
49722;SDS011;43484;43.608;1.458;2023-07-29T07:23:59;7.53;;;4.82;;
49722;SDS011;43484;43.608;1.458;2023-07-29T07:26:25;6.80;;;4.78;;
49722;SDS011;43484;43.608;1.458;2023-07-29T07:28:52;5.97;;;4.40;;
49722;SDS011;43484;43.608;1.458;2023-07-29T07:31:19;6.90;;;4.60;;
49722;SDS011;43484;43.608;1.458;2023-07-29T07:33:46;13.18;;;4.88;;
49722;SDS011;43484;43.608;1.458;2023-07-29T07:36:12;7.45;;;4.63;;
49722;SDS011;43484;43.608;1.458;2023-07-29T07:38:39;5.50;;;4.35;;
49722;SDS011;43484;43.608;1.458;2023-07-29T07:41:06;8.63;;;4.40;;
49722;SDS011;43484;43.608;1.458;2023-07-29T07:43:32;6.40;;;4.15;;
49722;SDS011;43484;43.608;1.458;2023-07-29T07:46:00;9.50;;;3.78;;
49722;SDS011;43484;43.608;1.458;2023-07-29T07:48:28;5.80;;;3.42;;
49722;SDS011;43484;43.608;1.458;2023-07-29T07:50:55;7.18;;;3.83;;
49722;SDS011;43484;43.608;1.458;2023-07-29T07:53:21;6.97;;;3.75;;
49722;SDS011;43484;43.608;1.458;2023-07-29T07:55:48;4.00;;;3.45;;
49722;SDS011;43484;43.608;1.458;2023-07-29T07:58:14;7.07;;;3.85;;
49722;SDS011;43484;43.608;1.458;2023-07-29T08:00:41;5.40;;;3.60;;
49722;SDS011;43484;43.608;1.458;2023-07-29T08:03:08;7.18;;;3.90;;
49722;SDS011;43484;43.608;1.458;2023-07-29T08:05:34;3.95;;;3.55;;
49722;SDS011;43484;43.608;1.458;2023-07-29T08:08:01;7.90;;;3.20;;
49722;SDS011;43484;43.608;1.458;2023-07-29T08:10:28;5.65;;;3.63;;
49722;SDS011;43484;43.608;1.458;2023-07-29T08:12:54;9.23;;;4.13;;
49722;SDS011;43484;43.608;1.458;2023-07-29T08:15:21;7.13;;;3.95;;
49722;SDS011;43484;43.608;1.458;2023-07-29T08:17:47;4.82;;;4.10;;
49722;SDS011;43484;43.608;1.458;2023-07-29T08:20:14;4.53;;;3.90;;
49722;SDS011;43484;43.608;1.458;2023-07-29T08:22:41;4.20;;;3.65;;
49722;SDS011;43484;43.608;1.458;2023-07-29T08:25:08;6.20;;;4.13;;
49722;SDS011;43484;43.608;1.458;2023-07-29T08:27:35;7.65;;;4.00;;
49722;SDS011;43484;43.608;1.458;2023-07-29T08:30:01;4.07;;;3.70;;
49722;SDS011;43484;43.608;1.458;2023-07-29T08:32:28;5.78;;;3.58;;
49722;SDS011;43484;43.608;1.458;2023-07-29T08:34:55;8.40;;;4.10;;
49722;SDS011;43484;43.608;1.458;2023-07-29T08:37:22;6.97;;;3.67;;
49722;SDS011;43484;43.608;1.458;2023-07-29T08:39:48;4.32;;;3.92;;
49722;SDS011;43484;43.608;1.458;2023-07-29T08:42:15;4.72;;;3.08;;
49722;SDS011;43484;43.608;1.458;2023-07-29T08:44:46;4.75;;;3.08;;
49722;SDS011;43484;43.608;1.458;2023-07-29T08:47:16;3.08;;;2.80;;
49722;SDS011;43484;43.608;1.458;2023-07-29T08:49:43;3.38;;;2.83;;
49722;SDS011;43484;43.608;1.458;2023-07-29T08:52:12;5.03;;;3.08;;
49722;SDS011;43484;43.608;1.458;2023-07-29T08:54:40;4.82;;;3.20;;
49722;SDS011;43484;43.608;1.458;2023-07-29T08:57:07;6.75;;;3.08;;
49722;SDS011;43484;43.608;1.458;2023-07-29T08:59:35;6.95;;;2.95;;
49722;SDS011;43484;43.608;1.458;2023-07-29T09:02:02;6.43;;;3.30;;
49722;SDS011;43484;43.608;1.458;2023-07-29T09:04:29;6.25;;;3.08;;
49722;SDS011;43484;43.608;1.458;2023-07-29T09:06:55;5.65;;;2.97;;
49722;SDS011;43484;43.608;1.458;2023-07-29T09:09:22;5.78;;;2.85;;
49722;SDS011;43484;43.608;1.458;2023-07-29T09:11:49;4.30;;;3.20;;
49722;SDS011;43484;43.608;1.458;2023-07-29T09:14:16;5.85;;;3.00;;
49722;SDS011;43484;43.608;1.458;2023-07-29T09:16:43;5.03;;;3.03;;
49722;SDS011;43484;43.608;1.458;2023-07-29T09:19:10;6.05;;;2.75;;
49722;SDS011;43484;43.608;1.458;2023-07-29T09:21:40;4.75;;;3.28;;
49722;SDS011;43484;43.608;1.458;2023-07-29T09:24:07;6.68;;;2.65;;
49722;SDS011;43484;43.608;1.458;2023-07-29T09:26:35;7.47;;;2.97;;
49722;SDS011;43484;43.608;1.458;2023-07-29T09:29:03;5.72;;;3.03;;
49722;SDS011;43484;43.608;1.458;2023-07-29T09:31:29;5.20;;;2.67;;
49722;SDS011;43484;43.608;1.458;2023-07-29T09:34:00;3.78;;;2.65;;
49722;SDS011;43484;43.608;1.458;2023-07-29T09:36:32;3.03;;;2.72;;
49722;SDS011;43484;43.608;1.458;2023-07-29T09:39:00;5.00;;;3.10;;
49722;SDS011;43484;43.608;1.458;2023-07-29T09:41:27;5.32;;;2.70;;
49722;SDS011;43484;43.608;1.458;2023-07-29T09:43:58;2.92;;;2.38;;
49722;SDS011;43484;43.608;1.458;2023-07-29T09:46:27;2.08;;;1.88;;
49722;SDS011;43484;43.608;1.458;2023-07-29T09:48:59;3.10;;;2.42;;
49722;SDS011;43484;43.608;1.458;2023-07-29T09:51:26;3.13;;;2.90;;
49722;SDS011;43484;43.608;1.458;2023-07-29T09:53:52;4.53;;;2.80;;
49722;SDS011;43484;43.608;1.458;2023-07-29T09:56:23;4.72;;;2.60;;
49722;SDS011;43484;43.608;1.458;2023-07-29T09:58:52;2.42;;;2.22;;
49722;SDS011;43484;43.608;1.458;2023-07-29T10:01:19;5.38;;;2.53;;
49722;SDS011;43484;43.608;1.458;2023-07-29T10:03:46;3.15;;;2.78;;
49722;SDS011;43484;43.608;1.458;2023-07-29T10:06:14;2.88;;;2.47;;
49722;SDS011;43484;43.608;1.458;2023-07-29T10:08:42;6.40;;;2.72;;
49722;SDS011;43484;43.608;1.458;2023-07-29T10:11:10;3.45;;;2.55;;
49722;SDS011;43484;43.608;1.458;2023-07-29T10:13:37;4.95;;;2.78;;
49722;SDS011;43484;43.608;1.458;2023-07-29T10:16:04;4.15;;;2.70;;
49722;SDS011;43484;43.608;1.458;2023-07-29T10:18:32;6.30;;;2.80;;
49722;SDS011;43484;43.608;1.458;2023-07-29T10:21:00;3.92;;;2.53;;
49722;SDS011;43484;43.608;1.458;2023-07-29T10:23:38;3.13;;;2.63;;
49722;SDS011;43484;43.608;1.458;2023-07-29T10:26:14;8.02;;;3.22;;
49722;SDS011;43484;43.608;1.458;2023-07-29T10:28:46;4.43;;;3.25;;
49722;SDS011;43484;43.608;1.458;2023-07-29T10:31:17;4.53;;;3.10;;
49722;SDS011;43484;43.608;1.458;2023-07-29T10:33:44;5.93;;;2.60;;
49722;SDS011;43484;43.608;1.458;2023-07-29T10:36:11;6.70;;;3.00;;
49722;SDS011;43484;43.608;1.458;2023-07-29T10:38:38;4.47;;;2.50;;
49722;SDS011;43484;43.608;1.458;2023-07-29T10:41:07;4.15;;;2.67;;
49722;SDS011;43484;43.608;1.458;2023-07-29T10:43:34;4.60;;;3.03;;
49722;SDS011;43484;43.608;1.458;2023-07-29T10:46:26;4.35;;;3.17;;
49722;SDS011;43484;43.608;1.458;2023-07-29T10:53:52;3.85;;;2.63;;
49722;SDS011;43484;43.608;1.458;2023-07-29T10:56:27;5.65;;;2.53;;
49722;SDS011;43484;43.608;1.458;2023-07-29T10:59:03;4.32;;;2.50;;
49722;SDS011;43484;43.608;1.458;2023-07-29T11:01:58;3.78;;;2.65;;
49722;SDS011;43484;43.608;1.458;2023-07-29T11:04:29;8.82;;;4.65;;
49722;SDS011;43484;43.608;1.458;2023-07-29T11:09:40;2.55;;;2.35;;
49722;SDS011;43484;43.608;1.458;2023-07-29T11:17:37;7.78;;;2.55;;
49722;SDS011;43484;43.608;1.458;2023-07-29T11:20:05;3.60;;;2.60;;
49722;SDS011;43484;43.608;1.458;2023-07-29T11:22:34;3.28;;;2.70;;
49722;SDS011;43484;43.608;1.458;2023-07-29T11:25:02;4.13;;;2.75;;
49722;SDS011;43484;43.608;1.458;2023-07-29T11:27:29;4.45;;;3.03;;
49722;SDS011;43484;43.608;1.458;2023-07-29T11:29:57;4.18;;;2.35;;
49722;SDS011;43484;43.608;1.458;2023-07-29T11:32:25;4.53;;;2.60;;
49722;SDS011;43484;43.608;1.458;2023-07-29T11:34:52;5.32;;;2.45;;
49722;SDS011;43484;43.608;1.458;2023-07-29T11:37:19;3.20;;;2.85;;
49722;SDS011;43484;43.608;1.458;2023-07-29T11:39:49;4.60;;;2.28;;
49722;SDS011;43484;43.608;1.458;2023-07-29T11:42:15;4.30;;;3.00;;
49722;SDS011;43484;43.608;1.458;2023-07-29T11:44:42;3.80;;;2.60;;
49722;SDS011;43484;43.608;1.458;2023-07-29T11:47:09;5.00;;;2.85;;
49722;SDS011;43484;43.608;1.458;2023-07-29T11:49:40;3.25;;;2.40;;
49722;SDS011;43484;43.608;1.458;2023-07-29T11:52:07;5.22;;;3.05;;
49722;SDS011;43484;43.608;1.458;2023-07-29T11:54:36;3.15;;;2.75;;
49722;SDS011;43484;43.608;1.458;2023-07-29T11:57:07;3.03;;;2.47;;
49722;SDS011;43484;43.608;1.458;2023-07-29T11:59:35;3.88;;;2.70;;
49722;SDS011;43484;43.608;1.458;2023-07-29T12:02:05;3.83;;;2.67;;
49722;SDS011;43484;43.608;1.458;2023-07-29T12:04:43;5.03;;;2.80;;
49722;SDS011;43484;43.608;1.458;2023-07-29T12:07:11;3.10;;;2.63;;
49722;SDS011;43484;43.608;1.458;2023-07-29T12:09:40;6.85;;;3.17;;
49722;SDS011;43484;43.608;1.458;2023-07-29T12:12:08;3.35;;;2.33;;
49722;SDS011;43484;43.608;1.458;2023-07-29T12:14:35;5.07;;;3.53;;
49722;SDS011;43484;43.608;1.458;2023-07-29T12:17:02;3.75;;;2.50;;
49722;SDS011;43484;43.608;1.458;2023-07-29T12:19:34;7.47;;;3.38;;
49722;SDS011;43484;43.608;1.458;2023-07-29T12:22:03;6.82;;;2.50;;
49722;SDS011;43484;43.608;1.458;2023-07-29T12:24:31;5.60;;;2.90;;
49722;SDS011;43484;43.608;1.458;2023-07-29T12:26:59;4.97;;;2.80;;
49722;SDS011;43484;43.608;1.458;2023-07-29T12:29:26;5.00;;;2.53;;
49722;SDS011;43484;43.608;1.458;2023-07-29T12:31:57;8.13;;;3.50;;
49722;SDS011;43484;43.608;1.458;2023-07-29T12:34:26;5.55;;;3.08;;
49722;SDS011;43484;43.608;1.458;2023-07-29T12:36:57;7.57;;;3.33;;
49722;SDS011;43484;43.608;1.458;2023-07-29T12:39:30;5.82;;;3.15;;
49722;SDS011;43484;43.608;1.458;2023-07-29T12:42:02;3.50;;;3.10;;
49722;SDS011;43484;43.608;1.458;2023-07-29T12:44:31;5.43;;;3.15;;
49722;SDS011;43484;43.608;1.458;2023-07-29T12:47:02;3.63;;;3.33;;
49722;SDS011;43484;43.608;1.458;2023-07-29T12:49:30;6.05;;;3.08;;
49722;SDS011;43484;43.608;1.458;2023-07-29T12:52:01;3.80;;;3.10;;
49722;SDS011;43484;43.608;1.458;2023-07-29T12:54:28;4.18;;;2.92;;
49722;SDS011;43484;43.608;1.458;2023-07-29T12:56:55;4.65;;;2.90;;
49722;SDS011;43484;43.608;1.458;2023-07-29T12:59:21;4.85;;;3.35;;
49722;SDS011;43484;43.608;1.458;2023-07-29T13:01:48;6.35;;;2.95;;
49722;SDS011;43484;43.608;1.458;2023-07-29T13:04:15;7.97;;;3.10;;
49722;SDS011;43484;43.608;1.458;2023-07-29T13:06:42;3.00;;;2.67;;
49722;SDS011;43484;43.608;1.458;2023-07-29T13:09:08;6.95;;;2.80;;
49722;SDS011;43484;43.608;1.458;2023-07-29T13:11:35;3.90;;;2.30;;
49722;SDS011;43484;43.608;1.458;2023-07-29T13:14:02;3.38;;;2.97;;
49722;SDS011;43484;43.608;1.458;2023-07-29T13:16:29;3.30;;;2.50;;
49722;SDS011;43484;43.608;1.458;2023-07-29T13:18:56;7.53;;;3.50;;
49722;SDS011;43484;43.608;1.458;2023-07-29T13:21:23;3.28;;;2.95;;
49722;SDS011;43484;43.608;1.458;2023-07-29T13:23:50;10.35;;;2.92;;
49722;SDS011;43484;43.608;1.458;2023-07-29T13:26:17;4.88;;;2.40;;
49722;SDS011;43484;43.608;1.458;2023-07-29T13:28:44;3.65;;;2.45;;
49722;SDS011;43484;43.608;1.458;2023-07-29T13:31:11;5.25;;;2.63;;
49722;SDS011;43484;43.608;1.458;2023-07-29T13:33:37;5.35;;;2.47;;
49722;SDS011;43484;43.608;1.458;2023-07-29T13:36:05;7.18;;;2.80;;
49722;SDS011;43484;43.608;1.458;2023-07-29T13:38:31;4.20;;;2.55;;
49722;SDS011;43484;43.608;1.458;2023-07-29T13:40:58;4.07;;;2.38;;
49722;SDS011;43484;43.608;1.458;2023-07-29T13:43:25;6.20;;;2.42;;
49722;SDS011;43484;43.608;1.458;2023-07-29T13:45:51;3.55;;;2.50;;
49722;SDS011;43484;43.608;1.458;2023-07-29T13:48:18;4.20;;;2.22;;
49722;SDS011;43484;43.608;1.458;2023-07-29T13:50:46;5.25;;;2.35;;
49722;SDS011;43484;43.608;1.458;2023-07-29T13:53:12;3.88;;;2.20;;
49722;SDS011;43484;43.608;1.458;2023-07-29T13:55:39;7.22;;;2.75;;
49722;SDS011;43484;43.608;1.458;2023-07-29T13:58:05;6.47;;;2.03;;
49722;SDS011;43484;43.608;1.458;2023-07-29T14:00:32;2.97;;;2.40;;
49722;SDS011;43484;43.608;1.458;2023-07-29T14:02:59;3.35;;;2.20;;
49722;SDS011;43484;43.608;1.458;2023-07-29T14:05:26;5.30;;;2.15;;
49722;SDS011;43484;43.608;1.458;2023-07-29T14:07:52;4.22;;;2.65;;
49722;SDS011;43484;43.608;1.458;2023-07-29T14:10:19;4.75;;;2.70;;
49722;SDS011;43484;43.608;1.458;2023-07-29T14:12:45;3.03;;;2.33;;
49722;SDS011;43484;43.608;1.458;2023-07-29T14:15:12;2.90;;;2.70;;
49722;SDS011;43484;43.608;1.458;2023-07-29T14:17:39;6.60;;;2.75;;
49722;SDS011;43484;43.608;1.458;2023-07-29T14:20:05;6.13;;;2.67;;
49722;SDS011;43484;43.608;1.458;2023-07-29T14:22:33;3.92;;;2.60;;
49722;SDS011;43484;43.608;1.458;2023-07-29T14:25:00;7.95;;;2.50;;
49722;SDS011;43484;43.608;1.458;2023-07-29T14:27:27;4.68;;;2.42;;
49722;SDS011;43484;43.608;1.458;2023-07-29T14:29:54;9.32;;;2.58;;
49722;SDS011;43484;43.608;1.458;2023-07-29T14:32:20;4.32;;;2.72;;
49722;SDS011;43484;43.608;1.458;2023-07-29T14:34:49;3.88;;;2.78;;
49722;SDS011;43484;43.608;1.458;2023-07-29T14:37:16;2.78;;;2.58;;
49722;SDS011;43484;43.608;1.458;2023-07-29T14:39:42;3.88;;;2.97;;
49722;SDS011;43484;43.608;1.458;2023-07-29T14:42:09;3.15;;;2.92;;
49722;SDS011;43484;43.608;1.458;2023-07-29T14:44:35;4.57;;;2.83;;
49722;SDS011;43484;43.608;1.458;2023-07-29T14:47:02;4.82;;;2.80;;
49722;SDS011;43484;43.608;1.458;2023-07-29T14:49:29;4.15;;;2.80;;
49722;SDS011;43484;43.608;1.458;2023-07-29T14:51:55;3.38;;;2.95;;
49722;SDS011;43484;43.608;1.458;2023-07-29T14:54:22;4.60;;;3.10;;
49722;SDS011;43484;43.608;1.458;2023-07-29T14:56:48;4.63;;;2.40;;
49722;SDS011;43484;43.608;1.458;2023-07-29T14:59:15;2.67;;;2.35;;
49722;SDS011;43484;43.608;1.458;2023-07-29T15:01:42;5.60;;;2.90;;
49722;SDS011;43484;43.608;1.458;2023-07-29T15:04:08;3.95;;;2.40;;
49722;SDS011;43484;43.608;1.458;2023-07-29T15:06:35;11.68;;;3.20;;
49722;SDS011;43484;43.608;1.458;2023-07-29T15:09:03;6.32;;;3.20;;
49722;SDS011;43484;43.608;1.458;2023-07-29T15:11:29;5.85;;;2.67;;